Forside
METAR-TAF:

METAR-TAF

Lufthavne :

Rochester International Airport

Rochester, Minnesota, USA

Breddekreds: 43-54-15N, længdekreds: 092-29-30W, højde: 401 m

Aktuelle vejr

Denne rapport blev lavet for 14 minutter siden, kl. 12:54 UTC
Vind stille
Temperatur 6°C
Fugtighed 52%
Tryk 1029 hPa
Sigt: 16.1 km
skyfri

METAR: KRST 111254Z 00000KT 10SM CLR 06/M03 A3038 RMK AO2 SLP296 T00611028

Tid: 08:08 (13:08 UTC)

Vejrudsigter

Denne rapport blev lavet for 1 time og 48 minutter siden, kl. 11:20 UTC
Foreløbig gælder fra 11 på 12 UTC til 12 på 12 UTC
Vind 4 kt fra varierende retninger
Sigt: 10 km
skyfri
Fra 11 på 1700 UTC
Vind 7 kt fra nordnordøst
Sigt: 10 km
Spredte skyer i en højde af 6000 ft
Fra 12 på 0100 UTC
Vind 3 kt fra varierende retninger
Sigt: 10 km
skyfri

TAF: KRST 111120Z 1112/1212 VRB04KT P6SM SKC FM111700 02007KT P6SM SCT060 FM120100 VRB03KT P6SM SKC

Vejrobservationer og prognoser fra mere end 4000 lufthavne (METAR og TAF).

De gule og røde prikker repræsenterer de meteorologiske stationer.

Flyt musen over at se navnet på stationen.

Så klik over at se vejr observationer og prognoser.

At skifte det kort: Klik på de grønne knapper med et sort kors for at zoome ind; på den grønne knap med en bindestreg for at zoome ud; eller på de grønne pile for tilstødende kort.


METAR-TAF: